sensor_id;sensor_type;location;lat;lon;timestamp;pressure;altitude;pressure_sealevel;temperature;humidity
42511;BME280;28141;51.120;17.114;2023-05-22T00:03:25;101842.10;;;28.63;34.03
42511;BME280;28141;51.120;17.114;2023-05-22T00:06:42;101840.16;;;28.63;33.72
42511;BME280;28141;51.120;17.114;2023-05-22T00:09:56;101846.45;;;28.59;33.88
42511;BME280;28141;51.120;17.114;2023-05-22T00:13:10;101834.68;;;28.57;34.29
42511;BME280;28141;51.120;17.114;2023-05-22T00:16:50;101842.45;;;28.55;34.17
42511;BME280;28141;51.120;17.114;2023-05-22T00:20:08;101841.23;;;28.51;34.18
42511;BME280;28141;51.120;17.114;2023-05-22T00:23:23;101839.29;;;28.51;34.70
42511;BME280;28141;51.120;17.114;2023-05-22T00:26:39;101839.52;;;28.50;34.58
42511;BME280;28141;51.120;17.114;2023-05-22T00:30:19;101837.70;;;28.44;34.28
42511;BME280;28141;51.120;17.114;2023-05-22T00:33:33;101840.34;;;28.39;34.32
42511;BME280;28141;51.120;17.114;2023-05-22T00:36:47;101832.83;;;28.39;33.99
42511;BME280;28141;51.120;17.114;2023-05-22T00:40:01;101833.06;;;28.38;34.55
42511;BME280;28141;51.120;17.114;2023-05-22T00:43:43;101836.70;;;28.38;34.38
42511;BME280;28141;51.120;17.114;2023-05-22T00:46:58;101831.86;;;28.33;34.91
42511;BME280;28141;51.120;17.114;2023-05-22T00:50:12;101837.91;;;28.30;33.82
42511;BME280;28141;51.120;17.114;2023-05-22T00:53:27;101832.80;;;28.27;34.04
42511;BME280;28141;51.120;17.114;2023-05-22T00:57:08;101832.80;;;28.27;34.50
42511;BME280;28141;51.120;17.114;2023-05-22T01:00:22;101825.99;;;28.23;34.60
42511;BME280;28141;51.120;17.114;2023-05-22T01:03:38;101828.77;;;28.23;34.47
42511;BME280;28141;51.120;17.114;2023-05-22T01:06:57;101829.03;;;28.22;34.56
42511;BME280;28141;51.120;17.114;2023-05-22T01:10:41;101833.13;;;28.19;34.59
42511;BME280;28141;51.120;17.114;2023-05-22T01:21:24;101849.02;;;28.01;34.90
42511;BME280;28141;51.120;17.114;2023-05-22T01:32:04;101837.60;;;27.90;34.99
42511;BME280;28141;51.120;17.114;2023-05-22T01:35:20;101841.14;;;27.97;34.71
42511;BME280;28141;51.120;17.114;2023-05-22T01:38:35;101839.44;;;27.96;35.26
42511;BME280;28141;51.120;17.114;2023-05-22T01:41:50;101830.69;;;27.93;34.58
42511;BME280;28141;51.120;17.114;2023-05-22T01:45:30;101838.91;;;27.88;35.01
42511;BME280;28141;51.120;17.114;2023-05-22T01:48:44;101843.40;;;27.89;35.18
42511;BME280;28141;51.120;17.114;2023-05-22T01:52:09;101838.30;;;27.86;34.92
42511;BME280;28141;51.120;17.114;2023-05-22T01:56:06;101847.73;;;27.85;35.08
42511;BME280;28141;51.120;17.114;2023-05-22T02:02:56;101843.40;;;27.71;35.18
42511;BME280;28141;51.120;17.114;2023-05-22T02:06:12;101846.80;;;27.73;35.33
42511;BME280;28141;51.120;17.114;2023-05-22T02:09:54;101833.91;;;27.78;35.20
42511;BME280;28141;51.120;17.114;2023-05-22T02:13:09;101836.43;;;27.80;35.60
42511;BME280;28141;51.120;17.114;2023-05-22T02:16:23;101836.92;;;27.77;35.97
42511;BME280;28141;51.120;17.114;2023-05-22T02:19:38;101833.28;;;27.76;34.84
42511;BME280;28141;51.120;17.114;2023-05-22T02:23:20;101835.67;;;27.73;35.22
42511;BME280;28141;51.120;17.114;2023-05-22T02:26:34;101830.33;;;27.71;34.71
42511;BME280;28141;51.120;17.114;2023-05-22T02:29:49;101825.00;;;27.70;35.67
42511;BME280;28141;51.120;17.114;2023-05-22T02:33:03;101821.98;;;27.71;35.11
42511;BME280;28141;51.120;17.114;2023-05-22T02:36:47;101829.81;;;27.63;35.29
42511;BME280;28141;51.120;17.114;2023-05-22T02:40:04;101818.05;;;27.60;35.98
42511;BME280;28141;51.120;17.114;2023-05-22T02:43:18;101829.19;;;27.60;35.85
42511;BME280;28141;51.120;17.114;2023-05-22T02:46:32;101826.63;;;27.59;35.19
42511;BME280;28141;51.120;17.114;2023-05-22T02:50:12;101829.90;;;27.56;35.39
42511;BME280;28141;51.120;17.114;2023-05-22T02:53:27;101828.40;;;27.53;35.56
42511;BME280;28141;51.120;17.114;2023-05-22T02:56:42;101825.61;;;27.53;35.73
42511;BME280;28141;51.120;17.114;2023-05-22T02:59:56;101827.97;;;27.56;35.27
42511;BME280;28141;51.120;17.114;2023-05-22T03:03:37;101826.89;;;27.57;35.42
42511;BME280;28141;51.120;17.114;2023-05-22T03:06:51;101820.27;;;27.52;35.25
42511;BME280;28141;51.120;17.114;2023-05-22T03:10:07;101822.45;;;27.50;35.88
42511;BME280;28141;51.120;17.114;2023-05-22T03:13:21;101820.14;;;27.47;35.96
42511;BME280;28141;51.120;17.114;2023-05-22T03:17:01;101822.08;;;27.46;35.57
42511;BME280;28141;51.120;17.114;2023-05-22T03:20:15;101817.59;;;27.45;36.01
42511;BME280;28141;51.120;17.114;2023-05-22T03:23:30;101803.89;;;27.44;35.14
42511;BME280;28141;51.120;17.114;2023-05-22T03:26:44;101813.95;;;27.45;35.84
42511;BME280;28141;51.120;17.114;2023-05-22T03:30:24;101802.74;;;27.33;35.62
42511;BME280;28141;51.120;17.114;2023-05-22T03:33:38;101816.96;;;27.43;35.45
42511;BME280;28141;51.120;17.114;2023-05-22T03:36:52;101823.15;;;27.45;36.01
42511;BME280;28141;51.120;17.114;2023-05-22T03:40:07;101820.96;;;27.47;34.86
42511;BME280;28141;51.120;17.114;2023-05-22T03:43:48;101825.21;;;27.50;35.33
42511;BME280;28141;51.120;17.114;2023-05-22T03:47:03;101814.80;;;27.45;35.24
42511;BME280;28141;51.120;17.114;2023-05-22T03:50:17;101817.59;;;27.45;35.19
42511;BME280;28141;51.120;17.114;2023-05-22T03:53:30;101824.00;;;27.46;35.12
42511;BME280;28141;51.120;17.114;2023-05-22T03:57:10;101822.30;;;27.45;35.22
42511;BME280;28141;51.120;17.114;2023-05-22T04:00:24;101816.73;;;27.45;34.77
42511;BME280;28141;51.120;17.114;2023-05-22T04:03:38;101817.59;;;27.45;35.52
42511;BME280;28141;51.120;17.114;2023-05-22T04:06:53;101812.61;;;27.47;35.23
42511;BME280;28141;51.120;17.114;2023-05-22T04:10:37;101811.06;;;27.51;35.06
42511;BME280;28141;51.120;17.114;2023-05-22T04:13:51;101812.77;;;27.52;35.19
42511;BME280;28141;51.120;17.114;2023-05-22T04:17:05;101809.77;;;27.54;35.10
42511;BME280;28141;51.120;17.114;2023-05-22T04:20:19;101807.64;;;27.56;34.81
42511;BME280;28141;51.120;17.114;2023-05-22T04:24:01;101816.61;;;27.58;34.91
42511;BME280;28141;51.120;17.114;2023-05-22T04:27:21;101814.41;;;27.60;34.36
42511;BME280;28141;51.120;17.114;2023-05-22T04:30:35;101812.03;;;27.64;35.12
42511;BME280;28141;51.120;17.114;2023-05-22T04:33:52;101813.96;;;27.63;34.47
42511;BME280;28141;51.120;17.114;2023-05-22T04:37:34;101822.84;;;27.72;34.72
42511;BME280;28141;51.120;17.114;2023-05-22T04:40:49;101814.87;;;27.75;34.95
42511;BME280;28141;51.120;17.114;2023-05-22T04:44:03;101811.86;;;27.77;34.54
42511;BME280;28141;51.120;17.114;2023-05-22T04:47:17;101811.14;;;27.81;34.44
42511;BME280;28141;51.120;17.114;2023-05-22T04:50:58;101819.04;;;27.84;34.53
42511;BME280;28141;51.120;17.114;2023-05-22T04:54:14;101810.57;;;27.91;34.86
42511;BME280;28141;51.120;17.114;2023-05-22T04:57:28;101822.95;;;27.95;34.71
42511;BME280;28141;51.120;17.114;2023-05-22T05:00:42;101821.63;;;27.97;34.87
42511;BME280;28141;51.120;17.114;2023-05-22T05:04:23;101823.11;;;28.00;34.31
42511;BME280;28141;51.120;17.114;2023-05-22T05:07:42;101819.83;;;28.03;34.43
42511;BME280;28141;51.120;17.114;2023-05-22T05:10:56;101819.83;;;28.03;34.32
42511;BME280;28141;51.120;17.114;2023-05-22T05:14:10;101816.35;;;28.08;33.77
42511;BME280;28141;51.120;17.114;2023-05-22T05:17:50;101819.02;;;28.14;34.12
42511;BME280;28141;51.120;17.114;2023-05-22T05:21:04;101821.38;;;28.17;33.56
42511;BME280;28141;51.120;17.114;2023-05-22T05:24:18;101818.24;;;28.25;33.89
42511;BME280;28141;51.120;17.114;2023-05-22T05:27:32;101822.88;;;28.31;33.64
42511;BME280;28141;51.120;17.114;2023-05-22T05:31:12;101822.30;;;28.41;33.70
42511;BME280;28141;51.120;17.114;2023-05-22T05:34:26;101822.64;;;28.45;33.41
42511;BME280;28141;51.120;17.114;2023-05-22T05:37:40;101825.12;;;28.53;33.35
42511;BME280;28141;51.120;17.114;2023-05-22T05:40:55;101822.79;;;28.50;33.28
42511;BME280;28141;51.120;17.114;2023-05-22T05:44:35;101822.45;;;28.58;33.41
42511;BME280;28141;51.120;17.114;2023-05-22T05:47:50;101817.63;;;28.65;33.21
42511;BME280;28141;51.120;17.114;2023-05-22T05:51:04;101815.42;;;28.67;33.14
42511;BME280;28141;51.120;17.114;2023-05-22T05:54:18;101814.23;;;28.75;33.41
42511;BME280;28141;51.120;17.114;2023-05-22T05:57:59;101813.99;;;28.76;33.13
42511;BME280;28141;51.120;17.114;2023-05-22T06:01:13;101814.61;;;28.78;33.50
42511;BME280;28141;51.120;17.114;2023-05-22T06:04:27;101814.85;;;28.88;33.22
42511;BME280;28141;51.120;17.114;2023-05-22T06:07:41;101812.82;;;28.95;33.16
42511;BME280;28141;51.120;17.114;2023-05-22T06:11:53;101812.45;;;29.03;32.73
42511;BME280;28141;51.120;17.114;2023-05-22T06:15:08;101808.95;;;29.08;32.77
42511;BME280;28141;51.120;17.114;2023-05-22T06:18:26;101808.66;;;29.10;32.75
42511;BME280;28141;51.120;17.114;2023-05-22T06:21:40;101805.16;;;29.14;32.13
42511;BME280;28141;51.120;17.114;2023-05-22T06:25:20;101812.20;;;29.17;32.58
42511;BME280;28141;51.120;17.114;2023-05-22T06:28:35;101807.71;;;29.16;32.38
42511;BME280;28141;51.120;17.114;2023-05-22T06:31:49;101814.50;;;29.20;32.37
42511;BME280;28141;51.120;17.114;2023-05-22T06:35:04;101810.12;;;29.24;32.62
42511;BME280;28141;51.120;17.114;2023-05-22T06:38:44;101813.52;;;29.26;32.83
42511;BME280;28141;51.120;17.114;2023-05-22T06:41:58;101809.02;;;29.25;32.93
42511;BME280;28141;51.120;17.114;2023-05-22T06:45:12;101810.34;;;29.34;32.87
42511;BME280;28141;51.120;17.114;2023-05-22T06:48:27;101806.22;;;29.36;32.26
42511;BME280;28141;51.120;17.114;2023-05-22T06:52:08;101810.51;;;29.39;32.56
42511;BME280;28141;51.120;17.114;2023-05-22T06:55:22;101811.59;;;29.38;32.68
42511;BME280;28141;51.120;17.114;2023-05-22T06:58:36;101813.63;;;29.43;33.10
42511;BME280;28141;51.120;17.114;2023-05-22T07:01:51;101816.78;;;29.46;32.83
42511;BME280;28141;51.120;17.114;2023-05-22T07:05:31;101825.77;;;29.48;32.57
42511;BME280;28141;51.120;17.114;2023-05-22T07:08:45;101820.80;;;29.50;32.71
42511;BME280;28141;51.120;17.114;2023-05-22T07:11:59;101808.54;;;29.51;32.51
42511;BME280;28141;51.120;17.114;2023-05-22T07:15:13;101812.63;;;29.60;32.57
42511;BME280;28141;51.120;17.114;2023-05-22T07:18:27;101814.42;;;29.66;32.37
42511;BME280;28141;51.120;17.114;2023-05-22T07:21:41;101813.94;;;29.69;32.67
42511;BME280;28141;51.120;17.114;2023-05-22T07:25:22;101811.23;;;29.74;32.19
42511;BME280;28141;51.120;17.114;2023-05-22T07:28:35;101803.83;;;29.80;32.69
42511;BME280;28141;51.120;17.114;2023-05-22T07:31:49;101807.83;;;29.84;31.27
42511;BME280;28141;51.120;17.114;2023-05-22T07:35:04;101804.87;;;29.91;31.49
42511;BME280;28141;51.120;17.114;2023-05-22T07:38:46;101810.69;;;30.01;31.83
42511;BME280;28141;51.120;17.114;2023-05-22T07:42:00;101809.59;;;30.02;31.39
42511;BME280;28141;51.120;17.114;2023-05-22T07:45:15;101809.67;;;30.07;32.18
42511;BME280;28141;51.120;17.114;2023-05-22T07:48:28;101807.83;;;30.12;31.76
42511;BME280;28141;51.120;17.114;2023-05-22T07:52:09;101805.16;;;30.18;31.30
42511;BME280;28141;51.120;17.114;2023-05-22T07:55:23;101799.28;;;30.19;31.35
42511;BME280;28141;51.120;17.114;2023-05-22T07:58:37;101801.58;;;30.22;32.08
42511;BME280;28141;51.120;17.114;2023-05-22T08:01:52;101798.04;;;30.27;30.68
42511;BME280;28141;51.120;17.114;2023-05-22T08:05:32;101799.07;;;30.37;31.18
42511;BME280;28141;51.120;17.114;2023-05-22T08:08:46;101801.02;;;30.37;30.88
42511;BME280;28141;51.120;17.114;2023-05-22T08:12:00;101798.30;;;30.42;31.34
42511;BME280;28141;51.120;17.114;2023-05-22T08:15:14;101794.77;;;30.46;30.49
42511;BME280;28141;51.120;17.114;2023-05-22T08:18:53;101799.95;;;30.55;30.86
42511;BME280;28141;51.120;17.114;2023-05-22T08:22:07;101793.60;;;30.59;30.35
42511;BME280;28141;51.120;17.114;2023-05-22T08:25:21;101790.82;;;30.59;30.17
42511;BME280;28141;51.120;17.114;2023-05-22T08:28:35;101787.83;;;30.66;31.20
42511;BME280;28141;51.120;17.114;2023-05-22T08:32:19;101793.52;;;30.71;30.58
42511;BME280;28141;51.120;17.114;2023-05-22T08:35:33;101783.84;;;30.78;30.94
42511;BME280;28141;51.120;17.114;2023-05-22T08:38:47;101796.23;;;30.82;29.61
42511;BME280;28141;51.120;17.114;2023-05-22T08:42:01;101785.35;;;30.86;30.20
42511;BME280;28141;51.120;17.114;2023-05-22T08:45:42;101786.29;;;30.92;30.20
42511;BME280;28141;51.120;17.114;2023-05-22T08:48:57;101781.95;;;31.01;30.34
42511;BME280;28141;51.120;17.114;2023-05-22T08:56:05;101778.81;;;30.97;30.13
42511;BME280;28141;51.120;17.114;2023-05-22T08:59:21;101771.19;;;31.09;29.81
42511;BME280;28141;51.120;17.114;2023-05-22T09:02:36;101767.27;;;31.10;29.51
42511;BME280;28141;51.120;17.114;2023-05-22T09:05:51;101765.38;;;31.16;29.35
42511;BME280;28141;51.120;17.114;2023-05-22T09:09:35;101751.27;;;31.28;29.18
42511;BME280;28141;51.120;17.114;2023-05-22T09:13:05;101755.89;;;31.39;28.86
42511;BME280;28141;51.120;17.114;2023-05-22T09:16:17;101747.96;;;31.31;28.32
42511;BME280;28141;51.120;17.114;2023-05-22T09:19:58;101749.70;;;31.37;28.53
42511;BME280;28141;51.120;17.114;2023-05-22T09:23:15;101748.73;;;31.48;28.26
42511;BME280;28141;51.120;17.114;2023-05-22T09:26:34;101748.28;;;31.56;28.12
42511;BME280;28141;51.120;17.114;2023-05-22T09:29:54;101738.81;;;31.62;27.72
42511;BME280;28141;51.120;17.114;2023-05-22T09:33:35;101755.77;;;31.72;27.73
42511;BME280;28141;51.120;17.114;2023-05-22T09:36:52;101758.75;;;31.87;27.82
42511;BME280;28141;51.120;17.114;2023-05-22T09:40:11;101752.62;;;31.90;27.93
42511;BME280;28141;51.120;17.114;2023-05-22T09:43:28;101731.96;;;32.02;27.79
42511;BME280;28141;51.120;17.114;2023-05-22T09:47:08;101730.30;;;32.01;27.04
42511;BME280;28141;51.120;17.114;2023-05-22T09:50:23;101732.30;;;32.05;27.13
42511;BME280;28141;51.120;17.114;2023-05-22T09:53:38;101733.75;;;32.13;26.50
42511;BME280;28141;51.120;17.114;2023-05-22T09:56:57;101724.59;;;32.17;27.20
42511;BME280;28141;51.120;17.114;2023-05-22T10:00:39;101730.80;;;32.24;26.29
42511;BME280;28141;51.120;17.114;2023-05-22T10:03:55;101723.56;;;32.28;25.73
42511;BME280;28141;51.120;17.114;2023-05-22T10:07:11;101720.32;;;32.42;26.41
42511;BME280;28141;51.120;17.114;2023-05-22T10:10:25;101714.44;;;32.43;26.35
42511;BME280;28141;51.120;17.114;2023-05-22T10:14:05;101681.27;;;32.35;25.89
42511;BME280;28141;51.120;17.114;2023-05-22T10:17:21;101702.18;;;32.54;25.36
42511;BME280;28141;51.120;17.114;2023-05-22T10:20:36;101710.40;;;32.66;25.80
42511;BME280;28141;51.120;17.114;2023-05-22T10:23:50;101714.60;;;32.69;25.59
42511;BME280;28141;51.120;17.114;2023-05-22T10:27:32;101718.70;;;32.88;25.62
42511;BME280;28141;51.120;17.114;2023-05-22T10:34:16;101712.24;;;32.87;25.17
42511;BME280;28141;51.120;17.114;2023-05-22T10:41:25;101705.53;;;32.93;25.40
42511;BME280;28141;51.120;17.114;2023-05-22T10:44:39;101708.92;;;33.00;25.48
42511;BME280;28141;51.120;17.114;2023-05-22T10:48:03;101704.19;;;33.06;25.05
42511;BME280;28141;51.120;17.114;2023-05-22T10:51:19;101699.96;;;33.04;24.84
42511;BME280;28141;51.120;17.114;2023-05-22T10:55:07;101701.44;;;33.16;25.42
42511;BME280;28141;51.120;17.114;2023-05-22T10:58:32;101703.12;;;33.22;25.15
42511;BME280;28141;51.120;17.114;2023-05-22T11:01:59;101696.39;;;33.18;25.08
42511;BME280;28141;51.120;17.114;2023-05-22T11:05:39;101697.30;;;33.29;25.35
42511;BME280;28141;51.120;17.114;2023-05-22T11:08:54;101693.38;;;33.35;25.15
42511;BME280;28141;51.120;17.114;2023-05-22T11:12:14;101689.45;;;33.36;25.23
42511;BME280;28141;51.120;17.114;2023-05-22T11:15:30;101691.15;;;33.37;24.98
42511;BME280;28141;51.120;17.114;2023-05-22T11:19:13;101686.10;;;33.39;25.05
42511;BME280;28141;51.120;17.114;2023-05-22T11:25:51;101681.90;;;33.47;25.35
42511;BME280;28141;51.120;17.114;2023-05-22T11:29:33;101660.55;;;33.41;25.07
42511;BME280;28141;51.120;17.114;2023-05-22T11:32:49;101677.14;;;33.57;25.16
42511;BME280;28141;51.120;17.114;2023-05-22T11:36:03;101682.48;;;33.64;25.29
42511;BME280;28141;51.120;17.114;2023-05-22T11:39:18;101661.70;;;33.65;25.14
42511;BME280;28141;51.120;17.114;2023-05-22T11:42:58;101669.60;;;33.73;25.00
42511;BME280;28141;51.120;17.114;2023-05-22T11:46:12;101671.05;;;33.81;25.03
42511;BME280;28141;51.120;17.114;2023-05-22T11:49:27;101668.22;;;33.86;24.81
42511;BME280;28141;51.120;17.114;2023-05-22T11:52:42;101665.98;;;33.88;25.04
42511;BME280;28141;51.120;17.114;2023-05-22T11:56:23;101664.02;;;33.93;24.94
42511;BME280;28141;51.120;17.114;2023-05-22T11:59:37;101666.84;;;33.98;24.74
42511;BME280;28141;51.120;17.114;2023-05-22T12:02:51;101664.02;;;34.03;25.26
42511;BME280;28141;51.120;17.114;2023-05-22T12:06:06;101654.17;;;34.11;24.38
42511;BME280;28141;51.120;17.114;2023-05-22T12:09:20;101664.34;;;34.27;24.56
42511;BME280;28141;51.120;17.114;2023-05-22T12:13:00;101660.65;;;34.32;24.54
42511;BME280;28141;51.120;17.114;2023-05-22T12:16:19;101654.73;;;34.43;24.89
42511;BME280;28141;51.120;17.114;2023-05-22T12:19:41;101656.96;;;34.57;24.78
42511;BME280;28141;51.120;17.114;2023-05-22T12:23:24;101648.77;;;34.70;24.10
42511;BME280;28141;51.120;17.114;2023-05-22T12:26:39;101643.14;;;34.81;24.49
42511;BME280;28141;51.120;17.114;2023-05-22T12:29:55;101644.79;;;34.92;23.85
42511;BME280;28141;51.120;17.114;2023-05-22T12:33:12;101635.45;;;35.01;23.55
42511;BME280;28141;51.120;17.114;2023-05-22T12:36:56;101627.23;;;35.10;23.88
42511;BME280;28141;51.120;17.114;2023-05-22T12:40:10;101640.70;;;35.23;23.91
42511;BME280;28141;51.120;17.114;2023-05-22T12:43:24;101640.11;;;35.31;23.83
42511;BME280;28141;51.120;17.114;2023-05-22T12:46:39;101627.08;;;35.40;23.48
42511;BME280;28141;51.120;17.114;2023-05-22T12:50:23;101627.91;;;35.46;23.59
42511;BME280;28141;51.120;17.114;2023-05-22T12:53:37;101628.70;;;35.52;23.27
42511;BME280;28141;51.120;17.114;2023-05-22T12:56:51;101623.04;;;35.57;23.39
42511;BME280;28141;51.120;17.114;2023-05-22T13:00:06;101610.64;;;35.58;23.72
42511;BME280;28141;51.120;17.114;2023-05-22T13:03:51;101625.46;;;35.73;23.28
42511;BME280;28141;51.120;17.114;2023-05-22T13:07:05;101616.92;;;35.83;23.39
42511;BME280;28141;51.120;17.114;2023-05-22T13:10:19;101619.71;;;35.89;22.86
42511;BME280;28141;51.120;17.114;2023-05-22T13:13:33;101600.18;;;35.97;23.13
42511;BME280;28141;51.120;17.114;2023-05-22T13:17:12;101611.65;;;36.06;22.99
42511;BME280;28141;51.120;17.114;2023-05-22T13:20:26;101605.33;;;36.19;23.02
42511;BME280;28141;51.120;17.114;2023-05-22T13:23:41;101605.62;;;36.23;22.90
42511;BME280;28141;51.120;17.114;2023-05-22T13:26:55;101601.55;;;36.34;22.54
42511;BME280;28141;51.120;17.114;2023-05-22T13:30:33;101598.28;;;36.45;22.56
42511;BME280;28141;51.120;17.114;2023-05-22T13:33:48;101594.45;;;36.60;22.37
42511;BME280;28141;51.120;17.114;2023-05-22T13:37:01;101593.17;;;36.76;22.42
42511;BME280;28141;51.120;17.114;2023-05-22T13:40:16;101585.09;;;36.88;22.22
42511;BME280;28141;51.120;17.114;2023-05-22T13:43:54;101579.82;;;37.01;22.27
42511;BME280;28141;51.120;17.114;2023-05-22T13:47:09;101574.01;;;37.16;22.18
42511;BME280;28141;51.120;17.114;2023-05-22T13:50:23;101574.93;;;37.30;21.96
42511;BME280;28141;51.120;17.114;2023-05-22T13:53:37;101565.14;;;37.41;21.85
42511;BME280;28141;51.120;17.114;2023-05-22T13:57:16;101571.68;;;37.55;21.79
42511;BME280;28141;51.120;17.114;2023-05-22T14:00:30;101568.09;;;37.69;21.72
42511;BME280;28141;51.120;17.114;2023-05-22T14:03:44;101561.95;;;37.80;21.39
42511;BME280;28141;51.120;17.114;2023-05-22T14:06:58;101563.99;;;37.93;21.06
42511;BME280;28141;51.120;17.114;2023-05-22T14:10:12;101557.30;;;38.03;20.96
42511;BME280;28141;51.120;17.114;2023-05-22T14:13:51;101559.35;;;38.16;20.85
42511;BME280;28141;51.120;17.114;2023-05-22T14:17:07;101554.33;;;38.27;20.70
42511;BME280;28141;51.120;17.114;2023-05-22T14:20:21;101556.13;;;38.37;20.39
42511;BME280;28141;51.120;17.114;2023-05-22T14:23:35;101553.08;;;38.47;20.40
42511;BME280;28141;51.120;17.114;2023-05-22T14:27:13;101555.73;;;38.57;20.31
42511;BME280;28141;51.120;17.114;2023-05-22T14:30:28;101541.66;;;38.65;20.23
42511;BME280;28141;51.120;17.114;2023-05-22T14:33:41;101536.51;;;38.81;20.19
42511;BME280;28141;51.120;17.114;2023-05-22T14:36:55;101537.02;;;38.97;20.06
42511;BME280;28141;51.120;17.114;2023-05-22T14:40:35;101544.85;;;39.14;19.87
42511;BME280;28141;51.120;17.114;2023-05-22T14:43:49;101533.59;;;39.22;19.97
42511;BME280;28141;51.120;17.114;2023-05-22T14:47:03;101535.86;;;39.34;19.68
42511;BME280;28141;51.120;17.114;2023-05-22T14:50:17;101527.50;;;39.51;19.70
42511;BME280;28141;51.120;17.114;2023-05-22T14:54:00;101534.47;;;39.67;19.46
42511;BME280;28141;51.120;17.114;2023-05-22T14:57:14;101531.53;;;39.81;19.06
42511;BME280;28141;51.120;17.114;2023-05-22T15:00:28;101524.80;;;39.91;19.18
42511;BME280;28141;51.120;17.114;2023-05-22T15:03:42;101518.55;;;40.11;19.21
42511;BME280;28141;51.120;17.114;2023-05-22T15:06:56;101503.36;;;40.16;18.86
42511;BME280;28141;51.120;17.114;2023-05-22T15:10:35;101515.70;;;40.42;18.89
42511;BME280;28141;51.120;17.114;2023-05-22T15:13:49;101512.05;;;40.59;18.96
42511;BME280;28141;51.120;17.114;2023-05-22T15:17:06;101505.95;;;40.82;18.54
42511;BME280;28141;51.120;17.114;2023-05-22T15:20:19;101503.47;;;40.98;18.48
42511;BME280;28141;51.120;17.114;2023-05-22T15:23:59;101509.35;;;41.19;18.37
42511;BME280;28141;51.120;17.114;2023-05-22T15:27:14;101491.25;;;41.32;18.12
42511;BME280;28141;51.120;17.114;2023-05-22T15:30:29;101490.25;;;41.54;18.44
42511;BME280;28141;51.120;17.114;2023-05-22T15:33:48;101488.34;;;41.75;18.02
42511;BME280;28141;51.120;17.114;2023-05-22T15:37:29;101489.32;;;41.88;17.90
42511;BME280;28141;51.120;17.114;2023-05-22T15:40:49;101474.58;;;41.95;17.83
42511;BME280;28141;51.120;17.114;2023-05-22T15:44:03;101477.57;;;42.07;18.02
42511;BME280;28141;51.120;17.114;2023-05-22T15:47:16;101469.83;;;42.16;17.86
42511;BME280;28141;51.120;17.114;2023-05-22T15:50:59;101478.65;;;42.23;17.62
42511;BME280;28141;51.120;17.114;2023-05-22T15:54:14;101469.94;;;42.28;17.55
42511;BME280;28141;51.120;17.114;2023-05-22T15:57:27;101469.91;;;42.37;17.37
42511;BME280;28141;51.120;17.114;2023-05-22T16:00:42;101465.33;;;42.44;17.51
42511;BME280;28141;51.120;17.114;2023-05-22T16:04:22;101460.75;;;42.52;17.47
42511;BME280;28141;51.120;17.114;2023-05-22T16:07:36;101456.60;;;42.49;17.78
42511;BME280;28141;51.120;17.114;2023-05-22T16:10:50;101454.48;;;42.38;17.83
42511;BME280;28141;51.120;17.114;2023-05-22T16:14:04;101449.63;;;42.38;17.71
42511;BME280;28141;51.120;17.114;2023-05-22T16:17:44;101449.91;;;42.45;17.63
42511;BME280;28141;51.120;17.114;2023-05-22T16:20:58;101444.70;;;42.47;17.39
42511;BME280;28141;51.120;17.114;2023-05-22T16:24:13;101443.43;;;42.36;17.58
42511;BME280;28141;51.120;17.114;2023-05-22T16:27:26;101454.98;;;42.31;17.63
42511;BME280;28141;51.120;17.114;2023-05-22T16:31:06;101456.71;;;42.23;17.80
42511;BME280;28141;51.120;17.114;2023-05-22T16:34:20;101454.09;;;42.10;18.05
42511;BME280;28141;51.120;17.114;2023-05-22T16:37:34;101458.84;;;41.88;17.71
42511;BME280;28141;51.120;17.114;2023-05-22T16:40:48;101456.61;;;41.56;18.11
42511;BME280;28141;51.120;17.114;2023-05-22T16:44:28;101461.34;;;41.17;18.35
42511;BME280;28141;51.120;17.114;2023-05-22T16:47:43;101464.99;;;40.92;18.59
42511;BME280;28141;51.120;17.114;2023-05-22T16:50:56;101460.30;;;40.70;18.64
42511;BME280;28141;51.120;17.114;2023-05-22T16:54:10;101461.57;;;40.47;18.80
42511;BME280;28141;51.120;17.114;2023-05-22T16:57:53;101462.33;;;40.22;18.98
42511;BME280;28141;51.120;17.114;2023-05-22T17:01:07;101465.41;;;40.03;18.84
42511;BME280;28141;51.120;17.114;2023-05-22T17:04:21;101470.18;;;39.85;19.25
42511;BME280;28141;51.120;17.114;2023-05-22T17:07:35;101470.08;;;39.68;19.34
42511;BME280;28141;51.120;17.114;2023-05-22T17:10:48;101470.15;;;39.54;19.59
42511;BME280;28141;51.120;17.114;2023-05-22T17:14:31;101475.16;;;39.35;19.57
42511;BME280;28141;51.120;17.114;2023-05-22T17:17:46;101468.02;;;39.15;19.91
42511;BME280;28141;51.120;17.114;2023-05-22T17:21:00;101478.36;;;38.97;19.88
42511;BME280;28141;51.120;17.114;2023-05-22T17:24:16;101484.37;;;38.82;19.77
42511;BME280;28141;51.120;17.114;2023-05-22T17:27:31;101477.05;;;38.67;20.12
42511;BME280;28141;51.120;17.114;2023-05-22T17:31:10;101481.05;;;38.53;20.21
42511;BME280;28141;51.120;17.114;2023-05-22T17:34:23;101478.86;;;38.36;20.31
42511;BME280;28141;51.120;17.114;2023-05-22T17:37:37;101459.88;;;38.23;20.27
42511;BME280;28141;51.120;17.114;2023-05-22T17:40:51;101466.06;;;38.11;20.55
42511;BME280;28141;51.120;17.114;2023-05-22T17:44:31;101471.49;;;37.94;20.70
42511;BME280;28141;51.120;17.114;2023-05-22T17:47:45;101468.94;;;37.79;20.76
42511;BME280;28141;51.120;17.114;2023-05-22T17:51:00;101463.48;;;37.69;21.02
42511;BME280;28141;51.120;17.114;2023-05-22T17:54:14;101465.33;;;37.59;20.91